Terminal Aerodrome Forecast
Issued by NWS Buffalo, NY

Home | Current Version | Previous Version | Text Only | Print | Product List | Glossary On
Versions: 1 2 3 4 5 6 7 8 9 10 11 12 13 14 15 16 17 18 19 20 21 22 23 24 25
894
FTUS41 KBUF 190902 AAC
TAFBUF
TAF AMD
KBUF 190902Z 1909/2006 31015G25KT 2SM -SN BKN008
     FM191030 30017G27KT P6SM VCSH SCT008 OVC015
     FM191500 29014G28KT P6SM SCT015 BKN025
     FM192300 29014G22KT P6SM SCT040=

USA.gov is the U.S. government's official web portal to all federal, state and local government web resources and services.